Time;durP1;ratioP1;P1;durP2;ratioP2;P2;SDS_P1;SDS_P2;PMS_P1;PMS_P2;Temp;Humidity;BMP_temperature;BMP_pressure;BME280_temperature;BME280_humidity;BME280_pressure;Samples;Min_cycle;Max_cycle;Signal;HPM_P1;HPM_P2
2021/11/04 00:01:28;;;;;;;45.03;26.27;;;;;;;;;;5071900;28;20878;-80
2021/11/04 00:03:55;;;;;;;50.77;28.17;;;;;;;;;;5062162;28;20452;-80
2021/11/04 00:06:22;;;;;;;48.43;27.33;;;;;;;;;;5067283;28;21116;-82
2021/11/04 00:08:49;;;;;;;43.13;26.90;;;;;;;;;;5071624;28;20451;-82
2021/11/04 00:11:17;;;;;;;46.03;28.57;;;;;;;;;;5067178;28;20455;-79
2021/11/04 00:13:45;;;;;;;53.47;30.10;;;;;;;;;;5072005;28;20455;-81
2021/11/04 00:16:13;;;;;;;48.40;28.63;;;;;;;;;;5074189;28;20460;-80
2021/11/04 00:18:40;;;;;;;47.73;29.80;;;;;;;;;;5068372;28;20938;-81
2021/11/04 00:21:08;;;;;;;46.47;28.37;;;;;;;;;;5065164;28;20510;-81
2021/11/04 00:23:35;;;;;;;52.57;30.03;;;;;;;;;;5071050;28;20455;-80
2021/11/04 00:26:03;;;;;;;48.63;30.00;;;;;;;;;;5070129;28;20476;-79
2021/11/04 00:28:31;;;;;;;48.20;28.17;;;;;;;;;;5070010;28;20444;-79
2021/11/04 00:31:00;;;;;;;49.97;27.47;;;;;;;;;;5067453;28;21016;-79
2021/11/04 00:33:27;;;;;;;54.83;27.67;;;;;;;;;;5068045;28;20456;-81
2021/11/04 00:35:54;;;;;;;49.40;29.03;;;;;;;;;;5068027;28;20448;-81
2021/11/04 00:38:21;;;;;;;51.70;29.00;;;;;;;;;;5065134;28;20456;-80
2021/11/04 00:40:52;;;;;;;49.63;26.90;;;;;;;;;;5068348;28;20480;-81
2021/11/04 00:43:22;;;;;;;50.88;29.15;;;;;;;;;;5070734;28;20436;-82
2021/11/04 00:45:53;;;;;;;52.20;27.10;;;;;;;;;;5063022;28;20202;-81
2021/11/04 00:48:22;;;;;;;47.27;27.80;;;;;;;;;;5066212;28;20537;-80
2021/11/04 00:50:50;;;;;;;48.83;29.60;;;;;;;;;;5068573;28;21032;-81
2021/11/04 00:53:17;;;;;;;47.23;27.27;;;;;;;;;;5059377;28;20452;-80
2021/11/04 00:55:44;;;;;;;43.22;24.65;;;;;;;;;;5070692;28;20471;-79
2021/11/04 00:58:11;;;;;;;46.20;26.93;;;;;;;;;;5071036;28;20201;-79
2021/11/04 01:00:39;;;;;;;48.55;27.17;;;;;;;;;;5071162;28;20487;-78
2021/11/04 01:03:06;;;;;;;43.97;26.53;;;;;;;;;;5078163;28;20278;-80
2021/11/04 01:05:34;;;;;;;42.50;25.30;;;;;;;;;;5061101;28;20455;-81
2021/11/04 01:08:01;;;;;;;40.63;24.70;;;;;;;;;;5069709;28;21602;-79
2021/11/04 01:10:29;;;;;;;47.17;25.30;;;;;;;;;;5069419;28;20460;-81
2021/11/04 01:12:56;;;;;;;53.33;28.27;;;;;;;;;;5062283;28;20458;-82
2021/11/04 01:15:23;;;;;;;46.03;27.40;;;;;;;;;;5070340;28;20452;-80
2021/11/04 01:17:51;;;;;;;46.30;28.10;;;;;;;;;;5066656;28;20465;-81
2021/11/04 01:20:18;;;;;;;46.67;24.60;;;;;;;;;;5067991;28;20478;-79
2021/11/04 01:22:50;;;;;;;51.60;26.53;;;;;;;;;;5068555;28;20447;-80
2021/11/04 01:25:21;;;;;;;50.57;27.17;;;;;;;;;;5070293;28;20436;-81
2021/11/04 01:27:48;;;;;;;47.20;25.60;;;;;;;;;;5068726;28;20579;-81
2021/11/04 01:30:16;;;;;;;49.43;28.67;;;;;;;;;;5066072;28;20574;-80
2021/11/04 01:32:43;;;;;;;45.92;27.10;;;;;;;;;;5069618;28;20448;-81
2021/11/04 01:35:11;;;;;;;49.73;27.80;;;;;;;;;;5065221;28;20396;-82
2021/11/04 01:37:38;;;;;;;49.73;27.33;;;;;;;;;;5059491;28;20491;-80
2021/11/04 01:40:07;;;;;;;55.22;29.95;;;;;;;;;;5068502;28;21149;-81
2021/11/04 01:42:35;;;;;;;55.93;26.23;;;;;;;;;;5068858;28;20198;-80
2021/11/04 01:45:02;;;;;;;40.97;24.70;;;;;;;;;;5060961;28;20452;-80
2021/11/04 01:47:29;;;;;;;43.33;26.43;;;;;;;;;;5080285;28;20498;-82
2021/11/04 01:49:56;;;;;;;48.00;27.40;;;;;;;;;;5088241;28;20463;-78
2021/11/04 01:52:23;;;;;;;47.47;26.50;;;;;;;;;;5071985;28;20448;-81
2021/11/04 01:54:51;;;;;;;45.70;27.07;;;;;;;;;;5071232;28;20452;-82
2021/11/04 01:57:20;;;;;;;49.77;26.67;;;;;;;;;;5065609;28;20796;-81
2021/11/04 01:59:47;;;;;;;42.77;24.07;;;;;;;;;;5068647;28;20466;-81
2021/11/04 02:02:16;;;;;;;43.73;25.50;;;;;;;;;;5068613;28;20463;-81
2021/11/04 02:04:47;;;;;;;48.73;26.30;;;;;;;;;;5068417;28;20448;-82
2021/11/04 02:07:16;;;;;;;43.75;24.00;;;;;;;;;;5063996;28;20484;-80
2021/11/04 02:09:47;;;;;;;41.10;24.83;;;;;;;;;;5066950;28;20218;-81
2021/11/04 02:12:18;;;;;;;51.30;28.43;;;;;;;;;;5071802;28;20447;-79
2021/11/04 02:21:05;;;;;;;48.28;26.42;;;;;;;;;;5056280;28;20793;-81
2021/11/04 02:23:36;;;;;;;53.42;26.55;;;;;;;;;;5072993;28;20229;-80
2021/11/04 02:26:08;;;;;;;46.97;25.73;;;;;;;;;;5066480;28;20221;-80
2021/11/04 02:28:38;;;;;;;53.17;27.57;;;;;;;;;;5072323;28;20505;-80
2021/11/04 02:31:07;;;;;;;47.10;24.37;;;;;;;;;;5071451;28;20487;-80
2021/11/04 02:33:40;;;;;;;44.22;25.70;;;;;;;;;;5098417;28;20468;-81
2021/11/04 02:36:08;;;;;;;46.22;27.13;;;;;;;;;;5069541;28;20190;-80
2021/11/04 02:38:36;;;;;;;49.85;26.55;;;;;;;;;;5070879;28;20201;-79
2021/11/04 02:41:04;;;;;;;49.72;24.90;;;;;;;;;;5072449;28;20269;-80
2021/11/04 02:43:35;;;;;;;50.20;25.10;;;;;;;;;;5069850;28;20198;-80
2021/11/04 02:46:03;;;;;;;46.07;23.23;;;;;;;;;;5061316;28;20667;-80
2021/11/04 02:48:30;;;;;;;45.57;25.83;;;;;;;;;;5069935;28;21007;-81
2021/11/04 02:50:58;;;;;;;44.97;24.97;;;;;;;;;;5069737;28;20440;-80
2021/11/04 02:53:26;;;;;;;48.97;26.13;;;;;;;;;;5072097;28;20452;-80
2021/11/04 02:55:54;;;;;;;50.72;26.63;;;;;;;;;;5071482;28;20479;-80
2021/11/04 02:58:21;;;;;;;52.97;26.42;;;;;;;;;;5071171;28;20204;-79
2021/11/04 03:00:51;;;;;;;46.30;26.07;;;;;;;;;;5071716;28;20221;-79
2021/11/04 03:03:19;;;;;;;46.33;24.80;;;;;;;;;;5068608;28;20471;-80
2021/11/04 03:05:46;;;;;;;46.38;26.05;;;;;;;;;;5070150;28;20444;-80
2021/11/04 03:08:14;;;;;;;44.03;24.13;;;;;;;;;;5064676;28;20214;-80
2021/11/04 03:10:41;;;;;;;53.45;25.73;;;;;;;;;;5059546;28;20414;-79
2021/11/04 03:13:08;;;;;;;43.78;24.92;;;;;;;;;;5071958;28;20276;-80
2021/11/04 03:15:41;;;;;;;41.10;24.05;;;;;;;;;;5072206;28;20194;-79
2021/11/04 03:18:10;;;;;;;49.90;24.80;;;;;;;;;;5085531;28;20244;-80
2021/11/04 03:20:38;;;;;;;49.20;26.33;;;;;;;;;;5072461;28;20483;-81
2021/11/04 03:23:06;;;;;;;51.83;27.00;;;;;;;;;;5069449;28;20459;-80
2021/11/04 03:25:33;;;;;;;57.17;26.80;;;;;;;;;;5070819;28;20456;-80
2021/11/04 03:28:00;;;;;;;48.47;27.13;;;;;;;;;;5069215;28;20477;-80
2021/11/04 03:30:29;;;;;;;50.47;26.90;;;;;;;;;;5071972;28;20230;-81
2021/11/04 03:32:58;;;;;;;50.77;27.70;;;;;;;;;;5066860;28;20466;-81
2021/11/04 03:35:27;;;;;;;49.42;26.52;;;;;;;;;;5102209;28;20451;-81
2021/11/04 03:37:56;;;;;;;51.33;27.13;;;;;;;;;;5063122;28;20208;-80
2021/11/04 03:40:26;;;;;;;53.25;25.70;;;;;;;;;;5060145;28;20694;-81
2021/11/04 03:42:54;;;;;;;56.67;26.38;;;;;;;;;;5052128;28;20579;-81
2021/11/04 03:45:21;;;;;;;53.22;27.45;;;;;;;;;;5057181;28;20209;-82
2021/11/04 03:47:49;;;;;;;46.95;24.58;;;;;;;;;;5067346;28;20716;-79
2021/11/04 03:50:18;;;;;;;52.00;26.83;;;;;;;;;;5094390;28;20270;-80
2021/11/04 03:52:47;;;;;;;55.55;28.90;;;;;;;;;;5088631;28;20450;-81
2021/11/04 03:55:18;;;;;;;63.88;29.73;;;;;;;;;;5072591;28;20202;-81
2021/11/04 03:57:46;;;;;;;52.63;27.10;;;;;;;;;;5068401;28;20218;-81
2021/11/04 04:00:14;;;;;;;55.17;27.70;;;;;;;;;;5069875;28;20454;-79
2021/11/04 04:02:42;;;;;;;50.78;27.67;;;;;;;;;;5072041;28;20212;-80
2021/11/04 04:05:09;;;;;;;47.15;26.30;;;;;;;;;;5062569;28;20194;-82
2021/11/04 04:07:36;;;;;;;46.27;24.40;;;;;;;;;;5071908;28;20624;-81
2021/11/04 04:10:05;;;;;;;49.40;25.80;;;;;;;;;;5071073;28;20476;-79
2021/11/04 04:12:32;;;;;;;59.78;27.70;;;;;;;;;;5061428;28;20193;-81
2021/11/04 04:15:00;;;;;;;47.80;25.53;;;;;;;;;;5073634;28;20209;-81
2021/11/04 04:17:27;;;;;;;51.67;25.92;;;;;;;;;;5072349;28;20447;-81
2021/11/04 04:19:54;;;;;;;51.70;25.58;;;;;;;;;;5064432;28;20206;-80
2021/11/04 04:22:21;;;;;;;57.47;26.07;;;;;;;;;;5069392;28;20209;-79
2021/11/04 04:24:48;;;;;;;48.33;24.40;;;;;;;;;;5066210;28;20950;-80
2021/11/04 04:27:17;;;;;;;42.38;23.40;;;;;;;;;;5064544;28;20989;-83
2021/11/04 04:29:44;;;;;;;49.23;24.10;;;;;;;;;;5067323;28;20221;-80
2021/11/04 04:32:12;;;;;;;43.22;23.10;;;;;;;;;;5071807;28;20448;-81
2021/11/04 04:34:40;;;;;;;49.10;23.65;;;;;;;;;;5071262;28;20202;-81
2021/11/04 04:37:07;;;;;;;50.28;26.67;;;;;;;;;;5069164;28;20190;-81
2021/11/04 04:39:37;;;;;;;43.30;23.58;;;;;;;;;;5067028;28;20279;-80
2021/11/04 04:42:04;;;;;;;50.72;24.85;;;;;;;;;;5050693;28;20296;-81
2021/11/04 04:44:32;;;;;;;47.97;24.27;;;;;;;;;;5064912;28;20194;-80
2021/11/04 04:47:00;;;;;;;46.60;21.90;;;;;;;;;;5064658;28;20197;-80
2021/11/04 04:49:27;;;;;;;40.80;23.67;;;;;;;;;;5060525;28;20214;-80
2021/11/04 04:51:54;;;;;;;46.05;21.88;;;;;;;;;;5069418;28;20198;-81
2021/11/04 04:54:21;;;;;;;49.63;22.80;;;;;;;;;;5068797;28;20198;-81
2021/11/04 04:56:48;;;;;;;46.30;22.20;;;;;;;;;;5068689;28;20523;-81
2021/11/04 04:59:16;;;;;;;41.20;22.17;;;;;;;;;;5070442;28;20478;-80
2021/11/04 05:01:44;;;;;;;45.55;23.88;;;;;;;;;;5058959;28;20491;-81
2021/11/04 05:04:11;;;;;;;44.50;22.60;;;;;;;;;;5067635;28;20287;-81
2021/11/04 05:06:39;;;;;;;46.03;23.75;;;;;;;;;;5070251;28;20965;-81
2021/11/04 05:09:06;;;;;;;43.38;22.17;;;;;;;;;;5066929;28;20230;-82
2021/11/04 05:11:36;;;;;;;45.80;22.00;;;;;;;;;;5069074;28;20622;-80
2021/11/04 05:14:03;;;;;;;49.77;24.87;;;;;;;;;;5068646;28;20882;-81
2021/11/04 05:16:30;;;;;;;45.30;23.37;;;;;;;;;;5069932;28;20857;-80
2021/11/04 05:19:01;;;;;;;41.92;21.92;;;;;;;;;;5065802;28;20519;-81
2021/11/04 05:21:29;;;;;;;44.28;23.08;;;;;;;;;;5057632;28;20642;-80
2021/11/04 05:23:56;;;;;;;54.17;24.77;;;;;;;;;;5062614;28;20287;-80
2021/11/04 05:26:23;;;;;;;61.33;25.63;;;;;;;;;;5067294;28;20795;-80
2021/11/04 05:28:50;;;;;;;57.83;27.85;;;;;;;;;;5064717;28;20592;-81
2021/11/04 05:31:17;;;;;;;58.45;26.13;;;;;;;;;;5069508;28;20233;-79
2021/11/04 05:33:46;;;;;;;57.83;27.98;;;;;;;;;;5068060;28;20647;-80
2021/11/04 05:36:15;;;;;;;59.30;27.90;;;;;;;;;;5066623;28;20224;-81
2021/11/04 05:38:42;;;;;;;59.28;27.65;;;;;;;;;;5066093;28;20190;-80
2021/11/04 05:41:14;;;;;;;60.00;25.50;;;;;;;;;;5056290;28;20208;-81
2021/11/04 05:43:45;;;;;;;59.78;25.25;;;;;;;;;;5066897;28;20471;-81
2021/11/04 05:46:12;;;;;;;60.03;27.27;;;;;;;;;;5064883;28;20658;-80
2021/11/04 05:48:39;;;;;;;62.63;27.17;;;;;;;;;;5066977;28;20220;-80
2021/11/04 05:51:13;;;;;;;71.18;30.27;;;;;;;;;;5070575;28;20204;-81
2021/11/04 05:53:44;;;;;;;63.15;27.73;;;;;;;;;;5068718;28;20194;-80
2021/11/04 05:56:12;;;;;;;60.35;25.48;;;;;;;;;;5066348;28;20201;-81
2021/11/04 05:59:11;;;;;;;65.22;29.73;;;;;;;;;;5070790;28;20212;-81
2021/11/04 06:01:40;;;;;;;68.90;31.87;;;;;;;;;;5059523;28;21133;-80
2021/11/04 06:04:16;;;;;;;82.90;33.03;;;;;;;;;;5069067;28;20486;-78
2021/11/04 06:06:46;;;;;;;79.63;31.65;;;;;;;;;;5068212;28;20440;-80
2021/11/04 06:09:21;;;;;;;84.70;33.87;;;;;;;;;;5057715;28;20390;-80
2021/11/04 06:14:48;;;;;;;82.10;32.33;;;;;;;;;;5055294;28;20186;-81
2021/11/04 06:17:21;;;;;;;78.90;32.72;;;;;;;;;;5071504;28;20191;-79
2021/11/04 06:22:56;;;;;;;71.65;30.50;;;;;;;;;;5060296;28;20205;-80
2021/11/04 06:25:27;;;;;;;71.63;31.15;;;;;;;;;;5050643;28;20208;-81
2021/11/04 06:33:46;;;;;;;73.35;33.47;;;;;;;;;;4978670;28;20460;-80
2021/11/04 06:37:03;;;;;;;64.80;30.93;;;;;;;;;;4981783;28;20204;-81
2021/11/04 06:45:53;;;;;;;80.77;34.03;;;;;;;;;;4944431;28;20234;-81
2021/11/04 06:48:23;;;;;;;79.47;35.30;;;;;;;;;;5037629;28;20482;-81
2021/11/04 06:56:42;;;;;;;72.00;34.50;;;;;;;;;;5044602;28;20205;-80
2021/11/04 07:02:38;;;;;;;;;;;;;;;;;;;;;
2021/11/04 07:05:18;;;;;;;76.20;36.28;;;;;;;;;;5076549;28;20451;-81
2021/11/04 07:07:46;;;;;;;68.40;32.97;;;;;;;;;;5067683;28;20865;-81
2021/11/04 07:10:18;;;;;;;60.53;32.72;;;;;;;;;;5076757;28;20558;-80
2021/11/04 07:12:47;;;;;;;71.68;35.03;;;;;;;;;;5069708;28;20201;-81
2021/11/04 07:15:14;;;;;;;57.15;29.83;;;;;;;;;;5048756;28;20478;-82
2021/11/04 07:17:44;;;;;;;60.25;32.22;;;;;;;;;;5075431;28;20202;-81
2021/11/04 07:20:12;;;;;;;67.13;34.35;;;;;;;;;;5075976;28;20233;-84
2021/11/04 07:22:41;;;;;;;64.82;30.95;;;;;;;;;;5068307;28;20200;-80
2021/11/04 07:25:08;;;;;;;65.70;30.05;;;;;;;;;;5070228;28;20582;-83
2021/11/04 07:27:40;;;;;;;58.83;32.33;;;;;;;;;;5068002;28;20190;-81
2021/11/04 07:30:09;;;;;;;70.80;32.55;;;;;;;;;;5068275;28;20791;-83
2021/11/04 07:32:39;;;;;;;67.70;31.42;;;;;;;;;;5061058;28;20222;-82
2021/11/04 07:35:08;;;;;;;56.65;31.02;;;;;;;;;;5080252;28;20303;-83
2021/11/04 07:37:37;;;;;;;62.28;29.33;;;;;;;;;;5075377;28;20194;-82
2021/11/04 07:40:05;;;;;;;52.97;28.80;;;;;;;;;;5058839;28;20705;-82
2021/11/04 07:42:32;;;;;;;60.45;31.02;;;;;;;;;;5061643;28;20205;-82
2021/11/04 07:45:00;;;;;;;66.07;33.00;;;;;;;;;;5068341;28;20659;-81
2021/11/04 07:47:27;;;;;;;67.70;32.30;;;;;;;;;;5070256;28;20197;-81
2021/11/04 07:49:56;;;;;;;63.08;30.88;;;;;;;;;;5071819;28;20241;-83
2021/11/04 07:52:25;;;;;;;71.05;34.40;;;;;;;;;;5068068;28;20442;-83
2021/11/04 07:55:19;;;;;;;70.70;34.45;;;;;;;;;;5078622;28;20202;-83
2021/11/04 07:57:47;;;;;;;65.60;32.78;;;;;;;;;;5090706;28;20795;-81
2021/11/04 08:00:15;;;;;;;68.75;34.53;;;;;;;;;;5094228;28;20217;-83
2021/11/04 08:02:44;;;;;;;64.72;33.78;;;;;;;;;;5062942;28;20201;-83
2021/11/04 08:05:12;;;;;;;64.22;33.65;;;;;;;;;;5057916;28;20676;-82
2021/11/04 08:07:41;;;;;;;68.07;33.90;;;;;;;;;;5071245;28;20202;-88
2021/11/04 08:10:11;;;;;;;67.22;32.42;;;;;;;;;;5073442;28;20646;-84
2021/11/04 08:18:46;;;;;;;64.25;32.30;;;;;;;;;;4997593;28;20200;-80
2021/11/04 08:21:13;;;;;;;57.80;29.42;;;;;;;;;;5063453;28;20193;-79
2021/11/04 08:23:42;;;;;;;55.80;31.23;;;;;;;;;;5085794;28;20186;-81
2021/11/04 08:26:09;;;;;;;55.25;30.42;;;;;;;;;;5080694;28;20213;-83
2021/11/04 08:28:36;;;;;;;48.50;27.10;;;;;;;;;;5058735;28;20227;-81
2021/11/04 08:31:04;;;;;;;56.35;30.23;;;;;;;;;;5078878;28;20221;-80
2021/11/04 08:33:31;;;;;;;51.17;28.57;;;;;;;;;;5083836;28;20202;-81
2021/11/04 08:35:58;;;;;;;54.30;28.73;;;;;;;;;;5070676;28;20495;-82
2021/11/04 08:38:26;;;;;;;45.42;23.90;;;;;;;;;;5067229;28;20202;-83
2021/11/04 08:40:54;;;;;;;49.78;26.83;;;;;;;;;;5046053;28;20220;-80
2021/11/04 08:43:21;;;;;;;43.70;23.20;;;;;;;;;;5075924;28;20202;-82
2021/11/04 08:45:48;;;;;;;45.22;23.50;;;;;;;;;;5068002;28;21033;-81
2021/11/04 08:48:18;;;;;;;43.00;24.52;;;;;;;;;;5065685;28;20200;-82
2021/11/04 08:50:45;;;;;;;44.67;23.23;;;;;;;;;;5065614;28;20237;-80
2021/11/04 08:53:12;;;;;;;37.90;21.40;;;;;;;;;;5070383;28;20440;-84
2021/11/04 08:55:40;;;;;;;39.50;20.07;;;;;;;;;;5066151;28;20459;-83
2021/11/04 08:58:08;;;;;;;39.23;20.77;;;;;;;;;;5074182;28;20448;-88
2021/11/04 09:00:36;;;;;;;34.80;19.97;;;;;;;;;;5064931;28;20484;-84
2021/11/04 09:03:03;;;;;;;37.80;19.83;;;;;;;;;;5066758;28;20551;-80
2021/11/04 09:05:30;;;;;;;35.40;20.57;;;;;;;;;;5066405;28;20453;-83
2021/11/04 09:07:58;;;;;;;33.93;17.97;;;;;;;;;;5045244;28;20459;-82
2021/11/04 09:10:25;;;;;;;37.73;20.27;;;;;;;;;;5058146;28;20492;-83
2021/11/04 09:12:52;;;;;;;37.87;20.67;;;;;;;;;;5065229;28;20507;-83
2021/11/04 09:15:21;;;;;;;32.13;18.97;;;;;;;;;;5059823;28;20474;-82
2021/11/04 09:17:48;;;;;;;38.70;21.30;;;;;;;;;;5065739;28;20762;-83
2021/11/04 09:20:17;;;;;;;39.93;18.83;;;;;;;;;;5055360;28;20461;-85
2021/11/04 09:22:46;;;;;;;36.13;18.33;;;;;;;;;;5032514;28;20433;-83
2021/11/04 09:25:13;;;;;;;39.50;20.53;;;;;;;;;;5037779;28;20471;-83
2021/11/04 09:27:41;;;;;;;38.90;20.83;;;;;;;;;;5046685;28;20908;-84
2021/11/04 09:30:09;;;;;;;36.53;19.60;;;;;;;;;;5079322;28;20566;-84
2021/11/04 09:32:37;;;;;;;40.23;19.97;;;;;;;;;;5090117;28;20463;-81
2021/11/04 09:35:05;;;;;;;39.43;18.90;;;;;;;;;;5072997;28;20475;-83
2021/11/04 09:37:32;;;;;;;34.27;17.17;;;;;;;;;;5070573;28;20472;-84
2021/11/04 09:40:00;;;;;;;41.03;20.43;;;;;;;;;;5069781;28;20483;-81
2021/11/04 09:42:27;;;;;;;42.67;20.47;;;;;;;;;;5071898;28;20455;-82
2021/11/04 09:44:55;;;;;;;36.53;20.60;;;;;;;;;;5073634;28;20475;-83
2021/11/04 09:47:22;;;;;;;36.40;20.50;;;;;;;;;;5059177;28;20471;-82
2021/11/04 09:49:51;;;;;;;37.47;19.20;;;;;;;;;;5052431;28;20480;-83
2021/11/04 09:52:22;;;;;;;39.93;20.07;;;;;;;;;;5051343;28;20456;-85
2021/11/04 09:54:49;;;;;;;35.23;19.37;;;;;;;;;;5039911;28;20464;-85
2021/11/04 09:57:16;;;;;;;42.40;20.77;;;;;;;;;;5067664;28;20453;-85
2021/11/04 09:59:44;;;;;;;36.67;19.23;;;;;;;;;;5064740;28;20487;-83
2021/11/04 10:02:16;;;;;;;36.70;19.70;;;;;;;;;;5070782;28;20464;-82
2021/11/04 10:04:44;;;;;;;44.23;22.43;;;;;;;;;;5068172;28;20459;-83
2021/11/04 10:07:13;;;;;;;46.00;22.60;;;;;;;;;;5065479;28;20506;-82
2021/11/04 10:09:40;;;;;;;41.87;22.93;;;;;;;;;;5069842;28;20841;-82
2021/11/04 10:12:09;;;;;;;42.17;22.47;;;;;;;;;;5050618;28;20456;-82
2021/11/04 10:14:37;;;;;;;48.53;23.87;;;;;;;;;;5068504;28;20795;-85
2021/11/04 10:17:04;;;;;;;53.67;29.17;;;;;;;;;;5070558;28;20482;-83
2021/11/04 10:19:41;;;;;;;63.03;27.20;;;;;;;;;;5068371;28;20484;-78
2021/11/04 10:22:10;;;;;;;55.60;28.63;;;;;;;;;;5063559;28;20955;-83
2021/11/04 10:24:47;;;;;;;50.37;25.97;;;;;;;;;;5068868;28;20432;-81
2021/11/04 10:27:28;;;;;;;50.93;25.17;;;;;;;;;;5072450;28;20803;-85
2021/11/04 10:29:56;;;;;;;50.73;26.90;;;;;;;;;;5047018;28;20828;-82
2021/11/04 10:32:32;;;;;;;49.60;27.37;;;;;;;;;;5080959;28;20483;-83
2021/11/04 10:35:05;;;;;;;46.20;26.17;;;;;;;;;;5068251;28;20866;-83
2021/11/04 10:37:32;;;;;;;46.00;25.23;;;;;;;;;;5099492;28;20943;-83
2021/11/04 10:40:06;;;;;;;43.37;22.90;;;;;;;;;;5107494;28;20494;-85
2021/11/04 10:42:49;;;;;;;53.60;26.00;;;;;;;;;;5104128;28;20540;-82
2021/11/04 10:45:19;;;;;;;51.30;28.33;;;;;;;;;;5102577;28;20450;-83
2021/11/04 10:47:46;;;;;;;49.40;26.33;;;;;;;;;;5105872;28;20508;-83
2021/11/04 10:50:15;;;;;;;53.03;26.60;;;;;;;;;;5110687;28;20478;-85
2021/11/04 10:52:43;;;;;;;49.80;26.27;;;;;;;;;;5111667;28;20690;-83
2021/11/04 10:55:12;;;;;;;52.40;26.90;;;;;;;;;;5114287;28;20811;-83
2021/11/04 10:57:40;;;;;;;47.67;26.33;;;;;;;;;;5105341;28;20519;-83
2021/11/04 11:00:15;;;;;;;48.83;27.70;;;;;;;;;;5110337;28;21244;-81
2021/11/04 11:02:53;;;;;;;48.43;25.80;;;;;;;;;;5101916;28;20564;-83
2021/11/04 11:05:26;;;;;;;49.67;25.87;;;;;;;;;;5126425;27;20457;-83
2021/11/04 11:07:53;;;;;;;43.23;23.90;;;;;;;;;;5109744;28;20447;-82
2021/11/04 11:10:22;;;;;;;48.43;24.93;;;;;;;;;;5106791;28;20481;-83
2021/11/04 11:12:50;;;;;;;46.20;25.10;;;;;;;;;;5127698;27;20480;-83
2021/11/04 11:15:17;;;;;;;38.03;23.07;;;;;;;;;;5109814;28;20453;-83
2021/11/04 11:17:45;;;;;;;36.87;23.57;;;;;;;;;;5109937;28;20549;-84
2021/11/04 11:20:13;;;;;;;33.40;20.00;;;;;;;;;;5113388;28;20536;-83
2021/11/04 11:22:41;;;;;;;31.83;17.80;;;;;;;;;;5113608;28;20469;-84
2021/11/04 11:25:08;;;;;;;28.97;18.20;;;;;;;;;;5113227;28;20435;-84
2021/11/04 11:27:37;;;;;;;28.10;16.97;;;;;;;;;;5109826;28;20799;-83
2021/11/04 11:30:09;;;;;;;26.90;18.47;;;;;;;;;;5115244;28;20486;-84
2021/11/04 11:32:36;;;;;;;26.03;16.80;;;;;;;;;;5114262;28;21045;-83
2021/11/04 11:35:17;;;;;;;27.60;15.23;;;;;;;;;;5105930;28;20462;-81
2021/11/04 11:37:58;;;;;;;25.60;16.00;;;;;;;;;;5110520;28;20529;-82
2021/11/04 11:40:27;;;;;;;24.63;14.77;;;;;;;;;;5094269;28;20666;-84
2021/11/04 11:42:57;;;;;;;25.10;16.10;;;;;;;;;;5108354;28;20488;-85
2021/11/04 11:45:25;;;;;;;26.80;15.77;;;;;;;;;;5093241;28;20545;-81
2021/11/04 11:47:52;;;;;;;29.33;16.60;;;;;;;;;;5129177;27;20506;-81
2021/11/04 11:50:21;;;;;;;24.77;16.47;;;;;;;;;;5112669;28;20504;-82
2021/11/04 11:52:50;;;;;;;25.83;16.00;;;;;;;;;;5128872;27;20454;-84
2021/11/04 11:55:18;;;;;;;26.33;18.30;;;;;;;;;;5113556;28;20442;-81
2021/11/04 11:58:00;;;;;;;27.87;18.73;;;;;;;;;;5085581;28;20443;-80
2021/11/04 12:00:42;;;;;;;30.03;17.50;;;;;;;;;;5112285;27;20462;-82
2021/11/04 12:03:11;;;;;;;31.30;19.80;;;;;;;;;;5095709;28;20806;-83
2021/11/04 12:05:39;;;;;;;29.47;18.60;;;;;;;;;;5110746;27;20969;-82
2021/11/04 12:08:21;;;;;;;31.80;19.00;;;;;;;;;;5109062;28;20442;-83
2021/11/04 12:10:49;;;;;;;30.83;20.50;;;;;;;;;;5098624;28;20477;-84
2021/11/04 12:13:32;;;;;;;31.27;20.10;;;;;;;;;;5111856;28;20461;-81
2021/11/04 12:16:14;;;;;;;32.40;22.10;;;;;;;;;;5123033;27;20992;-81
2021/11/04 12:18:51;;;;;;;33.63;20.13;;;;;;;;;;5093762;28;20457;-85
2021/11/04 12:21:19;;;;;;;31.57;20.57;;;;;;;;;;5112150;28;20532;-81
2021/11/04 12:23:47;;;;;;;30.37;18.63;;;;;;;;;;5110695;28;20554;-82
2021/11/04 12:26:15;;;;;;;28.87;19.00;;;;;;;;;;5093452;28;20434;-84
2021/11/04 12:28:42;;;;;;;29.90;19.10;;;;;;;;;;5113482;27;20458;-82
2021/11/04 12:31:13;;;;;;;31.13;19.17;;;;;;;;;;5110510;28;20604;-83
2021/11/04 12:33:40;;;;;;;31.50;19.33;;;;;;;;;;5108335;27;20454;-84
2021/11/04 12:36:08;;;;;;;31.03;20.30;;;;;;;;;;5105639;28;20494;-86
2021/11/04 12:38:40;;;;;;;31.13;18.27;;;;;;;;;;5105473;28;20450;-82
2021/11/04 12:41:09;;;;;;;25.20;16.73;;;;;;;;;;5103758;28;20469;-81
2021/11/04 12:43:36;;;;;;;26.43;18.30;;;;;;;;;;5111018;28;20438;-80
2021/11/04 12:46:18;;;;;;;28.33;17.43;;;;;;;;;;5126043;27;20843;-83
2021/11/04 12:48:46;;;;;;;26.03;18.80;;;;;;;;;;5092036;28;20430;-81
2021/11/04 12:51:15;;;;;;;26.43;18.57;;;;;;;;;;5109357;28;20481;-81
2021/11/04 12:53:50;;;;;;;23.53;16.60;;;;;;;;;;5111496;28;20442;-81
2021/11/04 12:56:17;;;;;;;28.90;18.60;;;;;;;;;;5092573;28;20541;-82
2021/11/04 12:58:44;;;;;;;30.63;19.77;;;;;;;;;;5110287;28;20848;-82
2021/11/04 13:01:11;;;;;;;25.57;19.40;;;;;;;;;;5102204;28;20462;-83
2021/11/04 13:03:38;;;;;;;26.40;18.33;;;;;;;;;;5104722;28;20455;-84
2021/11/04 13:06:08;;;;;;;26.20;19.23;;;;;;;;;;5101190;28;20939;-82
2021/11/04 13:08:36;;;;;;;32.30;20.47;;;;;;;;;;5086683;28;20457;-83
2021/11/04 13:11:12;;;;;;;26.27;19.00;;;;;;;;;;5103186;28;20896;-84
2021/11/04 13:13:46;;;;;;;24.63;16.80;;;;;;;;;;5111414;28;20442;-84
2021/11/04 13:16:20;;;;;;;31.20;18.77;;;;;;;;;;5108651;28;20449;-81
2021/11/04 13:18:47;;;;;;;25.57;17.70;;;;;;;;;;5108703;28;20441;-84
2021/11/04 13:21:21;;;;;;;24.47;17.20;;;;;;;;;;5106374;28;20712;-84
2021/11/04 13:23:52;;;;;;;26.50;19.10;;;;;;;;;;5109264;28;20465;-84
2021/11/04 13:26:20;;;;;;;26.97;18.97;;;;;;;;;;5111071;28;20443;-83
2021/11/04 13:28:48;;;;;;;34.17;23.37;;;;;;;;;;5109826;28;20545;-83
2021/11/04 13:31:16;;;;;;;28.60;19.97;;;;;;;;;;5103403;27;20494;-81
2021/11/04 13:33:45;;;;;;;30.53;22.60;;;;;;;;;;5109923;28;20473;-82
2021/11/04 13:36:14;;;;;;;29.33;22.60;;;;;;;;;;5113129;28;20493;-80
2021/11/04 13:38:51;;;;;;;31.20;20.43;;;;;;;;;;5108842;28;20450;-81
2021/11/04 13:41:25;;;;;;;28.67;19.47;;;;;;;;;;5089758;28;20521;-81
2021/11/04 13:43:53;;;;;;;29.83;20.50;;;;;;;;;;5091142;28;20518;-83
2021/11/04 13:46:21;;;;;;;23.07;16.50;;;;;;;;;;5108963;28;20454;-78
2021/11/04 13:48:49;;;;;;;20.97;14.83;;;;;;;;;;5110793;28;20444;-82
2021/11/04 13:51:31;;;;;;;21.37;15.17;;;;;;;;;;5121076;27;20982;-80
2021/11/04 13:54:13;;;;;;;20.17;15.13;;;;;;;;;;5092804;28;20458;-79
2021/11/04 13:56:42;;;;;;;26.77;18.47;;;;;;;;;;5097416;28;20438;-81
2021/11/04 13:59:09;;;;;;;26.00;20.30;;;;;;;;;;5111532;28;20474;-82
2021/11/04 14:01:37;;;;;;;33.63;23.43;;;;;;;;;;5109048;28;20432;-80
2021/11/04 14:04:06;;;;;;;31.00;23.40;;;;;;;;;;5101944;28;20450;-84
2021/11/04 14:06:40;;;;;;;30.80;21.67;;;;;;;;;;5086275;28;22215;-79
2021/11/04 14:09:08;;;;;;;34.23;23.77;;;;;;;;;;5112952;27;20516;-81
2021/11/04 14:11:35;;;;;;;33.97;23.20;;;;;;;;;;5109262;28;20577;-81
2021/11/04 14:14:08;;;;;;;34.80;23.30;;;;;;;;;;5111963;28;20462;-80
2021/11/04 14:16:37;;;;;;;31.57;21.70;;;;;;;;;;5088461;28;20461;-84
2021/11/04 14:19:05;;;;;;;22.33;17.93;;;;;;;;;;5093756;28;20553;-78
2021/11/04 14:21:33;;;;;;;32.03;17.63;;;;;;;;;;5113007;28;20800;-82
2021/11/04 14:24:00;;;;;;;22.33;15.97;;;;;;;;;;5114581;28;20438;-82
2021/11/04 14:26:33;;;;;;;23.00;15.40;;;;;;;;;;5114694;28;20949;-82
2021/11/04 14:29:00;;;;;;;22.67;15.13;;;;;;;;;;5102205;28;20854;-82
2021/11/04 14:31:29;;;;;;;17.47;13.00;;;;;;;;;;5107648;28;20478;-78
2021/11/04 14:33:56;;;;;;;20.93;12.10;;;;;;;;;;5112515;28;20998;-81
2021/11/04 14:36:24;;;;;;;15.73;11.23;;;;;;;;;;5110291;28;20465;-86
2021/11/04 14:38:51;;;;;;;15.30;10.77;;;;;;;;;;5099628;28;21009;-78
2021/11/04 14:41:19;;;;;;;10.17;8.27;;;;;;;;;;5111896;28;20458;-82
2021/11/04 14:43:46;;;;;;;13.80;8.43;;;;;;;;;;5113495;28;20438;-83
2021/11/04 14:46:13;;;;;;;9.37;7.60;;;;;;;;;;5111108;28;20450;-83
2021/11/04 14:48:42;;;;;;;10.43;6.63;;;;;;;;;;5111868;28;20922;-82
2021/11/04 14:51:09;;;;;;;8.83;6.73;;;;;;;;;;5112044;28;20505;-81
2021/11/04 14:53:36;;;;;;;13.17;7.37;;;;;;;;;;5113725;28;20537;-82
2021/11/04 14:56:04;;;;;;;7.60;5.97;;;;;;;;;;5127951;27;20454;-79
2021/11/04 14:58:32;;;;;;;9.93;5.50;;;;;;;;;;5113252;28;20458;-82
2021/11/04 15:00:59;;;;;;;6.83;6.13;;;;;;;;;;5111241;28;20553;-79
2021/11/04 15:03:27;;;;;;;6.23;4.80;;;;;;;;;;5109662;28;20816;-80
2021/11/04 15:05:55;;;;;;;10.33;5.93;;;;;;;;;;5093284;28;20519;-81
2021/11/04 15:08:23;;;;;;;9.97;5.30;;;;;;;;;;5112154;28;20545;-81
2021/11/04 15:10:50;;;;;;;10.57;5.67;;;;;;;;;;5110375;28;20480;-82